Van Nuys, California
Current Conditions -  °F | °C
As of 9:51 AM on Sunday 25 Jan 2015 (Local Time) from KVNY Reporting Station
Clear Clear  
Wind Chill: 79°   Ceiling: Unl
Heat Index: 79°   Visibility: 10mi
Dew Point: 34°   Wind: 0mph
Humidity: 20%   Direction: NA
Pressure: 30.04"   Gusts: NA
Location:  34.22°N, 118.48°W
Report Text: KVNY 251751Z 00000KT 10SM CLR 26/01 A3004 RMK AO2 SLP164 T02610011 10261 20094 53000
Loading
Personal Weather Stations






























Interactive Weather Map New forecast layout! Learn more

10-Day Weather Forecast

Advertisements
Track Severe Weather on mobile